TJNR/NRR METAR and TAF weather

Enter ICAO airport designator
Station Type Date Time Source
TJNR METAR 2020/02/19 10:53 UTC NOAA

TJNR 191053Z AUTO 07014G19KT 9SM SCT030 26/21 A3008 RMK AO2 SLP186 T02610206


Station Type Date Time Source
TJNR Decoded METAR 2020/02/19 10:53 UTC NOAA

ROOSEVELT ROADS PUERTO RICO, PR, United States (TJNR) 18-15N 65-38W 10M
Feb 19, 2020 - 05:53 AM EST / 2020.02.19 1053 UTC
Wind: from the ENE (070 degrees) at 16 MPH (14 KT) gusting to 22 MPH (19 KT):0
Visibility: 9 mile(s):0
Sky conditions: partly cloudy
Temperature: 79.0 F (26.1 C)
Dew Point: 69.1 F (20.6 C)
Relative Humidity: 71%
Pressure (altimeter): 30.08 in. Hg (1018 hPa)
ob: TJNR 191053Z AUTO 07014G19KT 9SM SCT030 26/21 A3008 RMK AO2 SLP186 T02610206
cycle: 11

Station Type Date Time Source
TJNR TAF UTC NOAA

Error!

Example: see airport list